Time Latitude Longitude Accuracy (66% radius in meters) Altitude (meters) Speed (km/hour) Bearing (degrees) Battery (%) GPS flag
04:19:39 51.897347 107.661936 9 655 1.5221037864685 94.400001525879 53 1 delete
04:19:35 51.897351 107.661846 9 655 1.5326447486877 94.599998474121 53 1 delete
04:19:30 51.897362 107.661700 9 655 2.0923910140991 106.80000305176 53 1 delete
04:19:28 51.897372 107.661630 9 655 1.9158810377121 116.80000305176 53 1 delete
04:19:25 51.897392 107.661557 9 656 1.571527838707 128.60000610352 53 1 delete
04:19:17 51.897455 107.661433 9 657 1.654357790947 145.19999694824 53 1 delete
04:19:11 51.897546 107.661382 9 657 1.5826876163483 166.30000305176 53 1 delete
04:19:06 51.897602 107.661348 9 659 0.71112585067749 146.19999694824 53 1 delete
04:19:03 51.897628 107.661319 9 661 2.1766488552094 146.30000305176 53 1 delete
04:18:58 51.897714 107.661228 9 662 1.2614674568176 163.10000610352 53 1 delete
04:18:55 51.897742 107.661233 9 665 1.8216475248337 149.39999389648 53 1 delete
04:18:48 51.897801 107.661184 9 666 0.92395889759064 99.800003051758 53 1 delete
04:18:43 51.897785 107.661073 9 666 1.3000384569168 100.59999847412 53 1 delete
04:18:41 51.897800 107.661026 9 665 1.342386007309 116.80000305176 53 1 delete
04:18:33 51.897834 107.660876 9 664 1.3700000047684 81.099998474121 53 1 delete
04:18:32 51.897831 107.660854 9 664 1.4549571275711 80.599998474121 53 1 delete
04:18:25 51.897819 107.660711 10 665 2.2900218963623 73.300003051758 53 1 delete
04:18:21 51.897794 107.660529 10 665 2.0800960063934 105.90000152588 53 1 delete
04:18:17 51.897832 107.660365 10 664 2.1073679924011 101.69999694824 53 1 delete
04:18:11 51.897869 107.660192 9 666 1.923148393631 102.90000152588 53 1 delete
04:18:10 51.897859 107.660178 9 666 2.0647518634796 103.80000305176 53 1 delete
04:18:06 51.897862 107.660042 9 663 1.4741098880768 98.199996948242 53 1 delete
04:18:01 51.897896 107.659877 9 662 1.4716657400131 90.400001525879 53 1 delete
04:17:59 51.897907 107.659812 9 661 1.4102836847305 95.900001525879 53 1 delete
04:17:53 51.897913 107.659710 9 663 1.6733499765396 81.199996948242 53 1 delete
04:17:48 51.897917 107.659593 9 663 0.65375834703445 75.300003051758 53 1 delete
04:17:38 51.897967 107.659585 9 665 1.0412012338638 205.60000610352 53 1 delete
04:17:37 51.897974 107.659585 9 663 1.251718878746 191.60000610352 53 1 delete
04:17:33 51.898059 107.659570 10 665 1.6031219959259 155.19999694824 53 1 delete
04:17:27 51.898170 107.659498 10 665 1.2033703327179 181 53 1 delete
04:17:25 51.898192 107.659501 9 668 1.3146862983704 180.69999694824 53 1 delete
04:17:21 51.898263 107.659455 10 667 1.2106196880341 122.09999847412 53 1 delete
04:17:14 51.898331 107.659370 9 669 0.91082376241684 127.30000305176 53 1 delete
04:17:12 51.898340 107.659363 9 669 0.96176916360855 109.69999694824 53 1 delete
04:17:06 51.898397 107.659250 10 667 1.0447965860367 149.80000305176 53 1 delete
04:17:03 51.898426 107.659211 9 666 1.5111916065216 176.30000305176 53 1 delete
04:17:00 51.898474 107.659173 10 667 1.5202959775925 159.39999389648 53 1 delete
04:16:56 51.898580 107.659107 10 666 1.5231873989105 129 53 1 delete
04:16:52 51.898626 107.659023 9 669 1.2203688621521 127.40000152588 53 1 delete
04:16:50 51.898658 107.658992 9 669 0.18999999761581 0 53 1 delete
04:16:43 51.898750 107.658993 9 669 1.3284955024719 209.60000610352 53 1 delete
04:16:41 51.898785 107.659004 9 670 0 0 53 1 delete
04:16:29 51.898786 107.659002 9 669 0 0 53 1 delete
04:16:19 51.898787 107.659001 9 669 0 0 53 1 delete
04:16:08 51.898796 107.658992 10 669 0 0 53 1 delete
04:15:57 51.898838 107.658952 9 671 2.1559453010559 168.39999389648 53 1 delete
04:15:56 51.898857 107.658957 9 673 2.4509997367859 174.89999389648 53 1 delete
04:15:53 51.898928 107.658934 9 672 3.1152045726776 175 53 1 delete
04:15:49 51.899039 107.658885 9 673 1.3744089603424 174.80000305176 53 1 delete
04:15:45 51.899089 107.658861 9 674 1.1228535175323 179.19999694824 53 1 delete